Time;durP1;ratioP1;P1;durP2;ratioP2;P2;SDS_P1;SDS_P2;PMS_P1;PMS_P2;Temp;Humidity;BMP_temperature;BMP_pressure;BME280_temperature;BME280_humidity;BME280_pressure;Samples;Min_cycle;Max_cycle;Signal;HPM_P1;HPM_P2
2022/08/17 00:00:33;;;;;;;;;13.00;12.00;;;;;23.86;61.38;100286.53;2092951;28;47752;-66
2022/08/17 00:01:34;;;;;;;;;13.20;11.80;;;;;23.87;61.47;100281.97;2079956;28;47367;-68
2022/08/17 00:02:35;;;;;;;;;13.00;13.00;;;;;23.88;61.07;100280.97;2087279;28;47997;-65
2022/08/17 00:03:42;;;;;;;;;13.20;13.20;;;;;23.87;61.30;100274.69;2090915;28;47534;-66
2022/08/17 00:04:42;;;;;;;;;15.00;14.60;;;;;23.90;61.43;100277.19;2097040;28;47361;-65
2022/08/17 00:05:49;;;;;;;;;13.50;11.75;;;;;23.91;60.99;100273.47;2097042;28;47876;-68
2022/08/17 00:06:52;;;;;;;;;14.00;13.20;;;;;23.92;61.08;100275.19;2097058;28;47296;-67
2022/08/17 00:07:52;;;;;;;;;11.20;11.20;;;;;23.94;61.26;100280.47;2097207;28;48053;-64
2022/08/17 00:08:58;;;;;;;;;9.75;9.75;;;;;23.95;61.04;100274.06;2096474;28;46611;-65
2022/08/17 00:09:59;;;;;;;;;11.00;11.00;;;;;23.97;61.44;100274.78;2096967;28;48629;-65
2022/08/17 00:11:00;;;;;;;;;17.00;14.00;;;;;23.98;60.99;100266.53;2096863;28;47780;-66
2022/08/17 00:12:03;;;;;;;;;14.60;12.80;;;;;24.00;61.10;100269.09;2091748;28;48153;-66
2022/08/17 00:13:10;;;;;;;;;15.00;12.80;;;;;23.99;61.21;100264.69;2089007;28;47371;-65
2022/08/17 00:14:14;;;;;;;;;14.80;13.80;;;;;24.02;61.16;100264.44;2097135;28;47422;-66
2022/08/17 00:15:15;;;;;;;;;14.20;14.20;;;;;24.01;61.10;100260.88;2096784;28;47065;-66
2022/08/17 00:16:22;;;;;;;;;10.00;9.80;;;;;24.01;61.13;100265.41;2089040;28;47732;-65
2022/08/17 00:17:23;;;;;;;;;15.60;13.20;;;;;24.00;60.88;100269.09;2096456;28;47570;-65
2022/08/17 00:18:24;;;;;;;;;16.50;16.50;;;;;23.97;61.25;100267.53;2096478;28;47737;-65
2022/08/17 00:19:25;;;;;;;;;15.80;15.80;;;;;23.94;60.87;100264.22;2096904;28;47592;-67
2022/08/17 00:20:26;;;;;;;;;15.20;15.20;;;;;23.91;60.96;100262.63;2097089;28;47664;-67
2022/08/17 00:21:27;;;;;;;;;15.00;14.75;;;;;23.90;61.27;100263.63;2096915;28;47795;-65
2022/08/17 00:22:27;;;;;;;;;12.75;11.75;;;;;23.86;61.01;100256.72;2094270;28;47519;-65
2022/08/17 00:23:27;;;;;;;;;12.75;12.75;;;;;23.84;61.29;100250.59;2096543;28;47881;-65
2022/08/17 00:24:28;;;;;;;;;13.00;11.25;;;;;23.84;61.40;100253.28;2099174;28;44940;-65
2022/08/17 00:25:28;;;;;;;;;15.25;12.50;;;;;23.83;61.32;100256.13;2088633;28;47607;-65
2022/08/17 00:26:29;;;;;;;;;17.50;14.25;;;;;23.82;61.34;100257.97;2088467;28;47166;-64
2022/08/17 00:27:29;;;;;;;;;13.00;13.00;;;;;23.81;60.86;100258.13;2088570;28;47424;-66
2022/08/17 00:28:29;;;;;;;;;13.25;12.25;;;;;23.80;61.37;100253.69;2088723;28;47915;-64
2022/08/17 00:29:30;;;;;;;;;16.50;13.75;;;;;23.79;61.31;100255.53;2091798;28;46996;-65
2022/08/17 00:30:30;;;;;;;;;13.00;12.00;;;;;23.76;61.19;100256.66;2096659;28;47093;-67
2022/08/17 00:31:31;;;;;;;;;15.00;15.00;;;;;23.76;61.26;100247.69;2078769;28;48089;-65
2022/08/17 00:32:45;;;;;;;;;11.00;11.00;;;;;23.77;61.40;100254.81;2071048;28;47158;-66
2022/08/17 00:33:46;;;;;;;;;13.80;13.80;;;;;23.76;61.34;100251.25;2083974;28;47162;-66
2022/08/17 00:34:46;;;;;;;;;11.75;11.75;;;;;23.75;61.40;100259.47;2088362;28;47381;-66
2022/08/17 00:35:48;;;;;;;;;11.00;10.25;;;;;23.74;61.36;100250.47;2102555;28;47745;-66
2022/08/17 00:36:48;;;;;;;;;11.20;11.20;;;;;23.75;61.55;100251.34;2094231;28;47536;-66
2022/08/17 00:37:50;;;;;;;;;11.25;11.25;;;;;23.74;61.58;100253.19;2087825;28;47052;-65
2022/08/17 00:38:50;;;;;;;;;12.60;12.60;;;;;23.73;61.47;100247.91;2087795;28;47461;-65
2022/08/17 00:39:51;;;;;;;;;16.75;15.75;;;;;23.73;61.48;100254.19;2088415;28;47496;-66
2022/08/17 00:40:55;;;;;;;;;15.25;15.25;;;;;23.73;61.68;100247.91;2088372;28;47107;-65
2022/08/17 00:41:56;;;;;;;;;14.80;13.20;;;;;23.74;61.34;100250.47;2096065;28;47676;-66
2022/08/17 00:43:08;;;;;;;;;15.00;14.00;;;;;23.77;61.58;100241.25;2096942;28;48031;-65
2022/08/17 00:44:10;;;;;;;;;13.00;13.00;;;;;23.77;61.53;100244.84;2096901;28;47120;-66
2022/08/17 00:45:14;;;;;;;;;14.60;14.60;;;;;23.76;61.53;100245.81;2096903;28;48456;-66
2022/08/17 00:46:28;;;;;;;;;9.60;9.20;;;;;23.79;61.49;100244.69;2096771;28;47949;-65
2022/08/17 00:47:29;;;;;;;;;12.00;11.00;;;;;23.81;61.29;100252.69;2096817;28;47962;-66
2022/08/17 00:48:31;;;;;;;;;10.40;10.40;;;;;23.83;61.34;100250.72;2096907;28;47397;-65
2022/08/17 00:49:31;;;;;;;;;13.40;13.40;;;;;23.86;61.48;100258.56;2097040;28;47872;-66
2022/08/17 00:50:33;;;;;;;;;14.25;13.75;;;;;23.86;61.36;100247.72;2092697;28;47461;-66
2022/08/17 00:51:39;;;;;;;;;10.60;10.60;;;;;23.86;60.86;100243.19;2096917;28;48149;-66
2022/08/17 00:52:51;;;;;;;;;14.20;14.20;;;;;23.88;60.85;100240.34;2096657;28;47794;-64
2022/08/17 00:53:58;;;;;;;;;13.00;11.40;;;;;23.88;61.20;100245.75;2095775;28;46543;-65
2022/08/17 00:54:59;;;;;;;;;13.40;13.40;;;;;23.90;61.14;100247.38;2098434;28;47539;-65
2022/08/17 00:56:03;;;;;;;;;11.20;11.20;;;;;23.91;61.19;100240.09;2096559;28;48004;-65
2022/08/17 00:57:25;;;;;;;;;10.20;10.20;;;;;23.92;61.20;100239.97;2088326;28;47888;-65
2022/08/17 00:58:25;;;;;;;;;13.80;13.80;;;;;23.93;60.73;100238.09;2088353;28;47828;-65
2022/08/17 00:59:30;;;;;;;;;13.00;13.00;;;;;23.91;60.76;100240.94;2089764;28;46904;-65
2022/08/17 01:00:41;;;;;;;;;11.00;10.00;;;;;23.88;61.00;100238.47;2096970;28;47317;-65
2022/08/17 01:01:42;;;;;;;;;14.60;13.60;;;;;23.86;60.96;100243.19;2096911;28;47788;-65
2022/08/17 01:02:45;;;;;;;;;13.50;12.50;;;;;23.85;61.00;100246.88;2096676;28;47019;-65
2022/08/17 01:03:46;;;;;;;;;14.40;14.40;;;;;23.84;61.03;100247.88;2096773;28;47923;-66
2022/08/17 01:04:50;;;;;;;;;9.00;9.00;;;;;23.82;60.99;100241.72;2097049;28;47417;-66
2022/08/17 01:05:54;;;;;;;;;11.80;11.80;;;;;23.84;61.37;100249.72;2096820;28;47940;-65
2022/08/17 01:06:57;;;;;;;;;15.40;15.40;;;;;23.84;61.12;100247.88;2096735;28;47780;-65
2022/08/17 01:07:59;;;;;;;;;9.60;9.60;;;;;23.83;61.14;100248.88;2096874;28;47536;-65
2022/08/17 01:09:02;;;;;;;;;13.40;13.40;;;;;23.84;61.09;100257.84;2087488;28;47229;-66
2022/08/17 01:10:08;;;;;;;;;12.20;12.20;;;;;23.84;61.47;100253.28;2087898;28;47581;-65
2022/08/17 01:11:08;;;;;;;;;12.00;12.00;;;;;23.83;61.32;100256.13;2092781;28;47478;-65
2022/08/17 01:12:11;;;;;;;;;14.25;13.00;;;;;23.82;61.22;100257.97;2096593;28;47596;-67
2022/08/17 01:13:12;;;;;;;;;13.60;13.60;;;;;23.78;61.20;100251.97;2096438;28;48053;-67
2022/08/17 01:14:13;;;;;;;;;11.20;11.00;;;;;23.75;61.31;100252.19;2078651;28;47647;-65
2022/08/17 01:15:15;;;;;;;;;10.75;10.75;;;;;23.75;61.58;100249.50;2079011;28;47244;-64
2022/08/17 01:16:28;;;;;;;;;13.60;13.20;;;;;23.73;61.39;100246.06;2070358;28;46949;-65
2022/08/17 01:17:29;;;;;;;;;13.20;12.40;;;;;23.72;61.30;100249.75;2075759;28;48095;-68
2022/08/17 01:18:30;;;;;;;;;12.75;12.75;;;;;23.70;61.39;100246.31;2091970;28;47815;-65
2022/08/17 01:19:35;;;;;;;;;12.40;11.80;;;;;23.71;61.37;100249.88;2096038;28;47460;-65
2022/08/17 01:20:40;;;;;;;;;12.80;12.80;;;;;23.71;61.57;100241.75;2096420;28;47928;-66
2022/08/17 01:21:59;;;;;;;;;12.40;11.60;;;;;23.72;61.67;100247.03;2087507;28;47349;-65
2022/08/17 01:23:00;;;;;;;;;12.80;11.60;;;;;23.71;61.58;100248.03;2091702;28;48393;-67
2022/08/17 01:24:01;;;;;;;;;14.20;13.20;;;;;23.73;61.20;100256.03;2095330;28;48158;-66
2022/08/17 01:25:06;;;;;;;;;13.80;13.20;;;;;23.73;61.72;100251.47;2090453;28;48002;-65
2022/08/17 01:26:07;;;;;;;;;11.60;11.60;;;;;23.72;61.52;100257.03;2087808;28;47190;-65
2022/08/17 01:27:08;;;;;;;;;14.50;14.00;;;;;23.73;61.71;100251.47;2091700;28;47790;-65
2022/08/17 01:28:09;;;;;;;;;9.60;9.60;;;;;23.74;61.47;100253.19;2096635;28;47712;-65
2022/08/17 01:29:11;;;;;;;;;14.25;14.00;;;;;23.74;61.50;100258.63;2095653;28;47536;-64
2022/08/17 01:30:12;;;;;;;;;12.60;12.40;;;;;23.72;61.33;100247.03;2096317;28;47755;-67
2022/08/17 01:31:13;;;;;;;;;11.00;11.00;;;;;23.74;61.36;100252.34;2087500;28;47662;-65
2022/08/17 01:32:14;;;;;;;;;13.40;12.60;;;;;23.72;61.35;100259.72;2087518;28;47914;-65
2022/08/17 01:33:14;;;;;;;;;14.25;14.25;;;;;23.71;61.28;100253.47;2096555;28;47401;-65
2022/08/17 01:34:16;;;;;;;;;15.00;14.25;;;;;23.71;61.53;100255.31;2096378;28;47939;-65
2022/08/17 01:35:16;;;;;;;;;13.80;12.80;;;;;23.71;61.56;100255.31;2096523;28;47554;-65
2022/08/17 01:36:17;;;;;;;;;12.50;12.50;;;;;23.69;61.59;100257.28;2086777;28;46582;-65
2022/08/17 01:37:26;;;;;;;;;14.75;13.25;;;;;23.68;61.52;100255.56;2086979;28;47584;-65
2022/08/17 01:38:30;;;;;;;;;13.80;13.80;;;;;23.68;61.30;100261.00;2096359;28;47907;-66
2022/08/17 01:39:38;;;;;;;;;13.40;13.40;;;;;23.66;61.63;100255.72;2087137;28;47696;-65
2022/08/17 01:40:48;;;;;;;;;17.20;15.80;;;;;23.68;61.48;100256.44;2086827;28;47563;-66
2022/08/17 01:41:54;;;;;;;;;15.80;15.20;;;;;23.68;61.92;100253.72;2077063;28;47627;-65
2022/08/17 01:42:59;;;;;;;;;12.60;12.40;;;;;23.67;61.53;100257.44;2079262;28;47680;-65
2022/08/17 01:44:03;;;;;;;;;17.00;15.80;;;;;23.68;61.63;100259.16;2088049;28;47727;-65
2022/08/17 01:45:21;;;;;;;;;14.00;14.00;;;;;23.69;61.68;100257.28;2076611;28;47658;-67
2022/08/17 01:46:26;;;;;;;;;13.40;11.40;;;;;23.68;61.38;100261.84;2084354;28;47445;-65
2022/08/17 01:47:26;;;;;;;;;11.60;11.60;;;;;23.68;61.60;100261.00;2096411;28;48027;-66
2022/08/17 01:48:33;;;;;;;;;11.75;11.75;;;;;23.68;61.63;100259.16;2096771;28;47686;-65
2022/08/17 01:49:33;;;;;;;;;16.00;14.00;;;;;23.69;61.31;100251.88;2096327;28;47248;-65
2022/08/17 01:50:36;;;;;;;;;15.00;14.00;;;;;23.68;61.43;100251.00;2099056;28;47327;-66
2022/08/17 01:51:37;;;;;;;;;13.80;13.80;;;;;23.69;61.40;100249.16;2088164;28;47403;-66
2022/08/17 01:52:38;;;;;;;;;15.20;15.20;;;;;23.69;61.68;100250.03;2087985;28;47852;-64
2022/08/17 01:53:45;;;;;;;;;12.60;12.60;;;;;23.68;61.59;100256.44;2084516;28;47207;-65
2022/08/17 01:54:47;;;;;;;;;12.20;12.20;;;;;23.69;61.35;100257.28;2085020;28;47657;-66
2022/08/17 01:55:51;;;;;;;;;13.20;13.20;;;;;23.71;61.44;100252.59;2087480;28;47745;-64
2022/08/17 01:56:52;;;;;;;;;13.80;13.80;;;;;23.73;61.73;100256.03;2096061;28;47438;-67
2022/08/17 01:57:53;;;;;;;;;14.20;14.20;;;;;23.72;61.17;100254.31;2095154;28;47953;-66
2022/08/17 01:58:53;;;;;;;;;12.50;12.00;;;;;23.72;61.33;100255.19;2088985;28;47826;-66
2022/08/17 01:59:54;;;;;;;;;14.25;11.75;;;;;23.71;61.33;100255.31;2096107;28;47403;-66
2022/08/17 02:00:54;;;;;;;;;14.00;12.25;;;;;23.71;61.35;100260.72;2096240;28;47563;-66
2022/08/17 02:01:55;;;;;;;;;12.50;11.00;;;;;23.71;61.38;100260.72;2087574;28;47346;-66
2022/08/17 02:02:55;;;;;;;;;14.50;14.50;;;;;23.71;61.43;100253.47;2087101;28;47410;-65
2022/08/17 02:03:57;;;;;;;;;12.75;12.25;;;;;23.72;61.02;100257.03;2096415;28;47623;-65
2022/08/17 02:04:58;;;;;;;;;15.00;14.00;;;;;23.73;61.37;100264.16;2096178;28;48034;-66
2022/08/17 02:05:59;;;;;;;;;13.00;13.00;;;;;23.72;61.09;100267.88;2096206;28;47576;-66
2022/08/17 02:07:00;;;;;;;;;15.40;14.80;;;;;23.70;61.31;100270.72;2078600;28;46579;-67
2022/08/17 02:08:02;;;;;;;;;11.25;11.25;;;;;23.68;61.21;100267.28;2078460;28;48010;-64
2022/08/17 02:09:04;;;;;;;;;12.20;12.20;;;;;23.69;61.17;100262.72;2090366;28;47421;-66
2022/08/17 02:10:07;;;;;;;;;13.40;12.80;;;;;23.68;61.07;100259.16;2089287;28;48077;-66
2022/08/17 02:11:13;;;;;;;;;17.00;15.20;;;;;23.69;61.06;100271.69;2078416;28;47701;-66
2022/08/17 02:12:13;;;;;;;;;15.60;14.20;;;;;23.69;61.39;100271.69;2079965;28;47740;-67
2022/08/17 02:13:15;;;;;;;;;15.50;15.00;;;;;23.67;61.15;100270.97;2094961;28;47703;-64
2022/08/17 02:14:15;;;;;;;;;12.40;11.20;;;;;23.66;61.23;100268.38;2087976;28;47555;-66
2022/08/17 02:15:16;;;;;;;;;12.25;12.25;;;;;23.66;60.88;100271.09;2094749;28;47726;-64
2022/08/17 02:16:17;;;;;;;;;14.00;14.00;;;;;23.64;61.26;100275.78;2104622;28;47744;-66
2022/08/17 02:17:18;;;;;;;;;14.60;14.60;;;;;23.61;61.14;100263.34;2094790;28;47665;-64
2022/08/17 02:18:18;;;;;;;;;14.25;14.25;;;;;23.60;61.50;100271.59;2087232;28;47208;-66
2022/08/17 02:19:19;;;;;;;;;17.75;15.00;;;;;23.57;61.78;100269.97;2087167;28;47062;-65
2022/08/17 02:20:19;;;;;;;;;11.50;11.50;;;;;23.55;61.11;100265.69;2096149;28;47638;-65
2022/08/17 02:21:20;;;;;;;;;14.75;14.75;;;;;23.55;61.48;100266.53;2096202;28;47340;-64
2022/08/17 02:22:20;;;;;;;;;13.75;13.50;;;;;23.55;61.34;100265.69;2096288;28;47660;-65
2022/08/17 02:23:23;;;;;;;;;13.00;13.00;;;;;23.55;61.51;100260.25;2093782;28;47216;-66
2022/08/17 02:24:30;;;;;;;;;13.20;12.20;;;;;23.54;61.44;100262.09;2095840;28;47851;-66
2022/08/17 02:25:32;;;;;;;;;15.60;15.60;;;;;23.54;61.48;100253.97;2088098;28;48656;-65
2022/08/17 02:26:32;;;;;;;;;16.00;15.00;;;;;23.55;61.35;100257.56;2092002;28;47624;-66
2022/08/17 02:27:34;;;;;;;;;12.75;12.25;;;;;23.55;61.21;100253.00;2096350;28;47496;-65
2022/08/17 02:28:34;;;;;;;;;13.80;13.80;;;;;23.55;61.41;100255.69;2095859;28;48196;-65
2022/08/17 02:29:36;;;;;;;;;14.50;14.50;;;;;23.54;61.50;100261.25;2096263;28;46504;-67
2022/08/17 02:30:36;;;;;;;;;14.80;14.80;;;;;23.53;61.28;100257.69;2079950;28;47331;-65
2022/08/17 02:31:37;;;;;;;;;13.50;12.25;;;;;23.53;61.18;100259.53;2079192;28;47028;-66
2022/08/17 02:32:37;;;;;;;;;14.00;13.25;;;;;23.51;61.02;100254.25;2087314;28;47280;-67
2022/08/17 02:33:39;;;;;;;;;15.50;14.50;;;;;23.52;61.28;100258.69;2096255;28;47277;-65
2022/08/17 02:34:40;;;;;;;;;14.20;14.20;;;;;23.54;61.35;100258.53;2093462;28;47725;-64
2022/08/17 02:35:41;;;;;;;;;16.50;16.50;;;;;23.53;61.16;100263.09;2096315;28;47444;-68
2022/08/17 02:36:42;;;;;;;;;13.40;13.40;;;;;23.53;61.55;100264.94;2087954;28;47103;-64
2022/08/17 02:37:42;;;;;;;;;13.75;12.75;;;;;23.51;61.25;100261.50;2091186;28;47558;-65
2022/08/17 02:38:42;;;;;;;;;15.00;15.00;;;;;23.51;61.59;100266.94;2095960;28;47432;-66
2022/08/17 02:39:44;;;;;;;;;16.25;14.75;;;;;23.49;61.34;100261.59;2096200;28;47594;-66
2022/08/17 02:40:44;;;;;;;;;12.40;12.40;;;;;23.47;61.30;100260.88;2091464;28;47779;-65
2022/08/17 02:41:45;;;;;;;;;14.25;14.25;;;;;23.47;61.33;100266.31;2071045;28;47270;-66
2022/08/17 02:42:45;;;;;;;;;12.00;11.75;;;;;23.46;61.50;100275.41;2071629;28;47938;-65
2022/08/17 02:43:46;;;;;;;;;15.75;15.75;;;;;23.44;61.52;100278.25;2097913;28;47563;-64
2022/08/17 02:44:46;;;;;;;;;15.00;15.00;;;;;23.42;61.53;100272.09;2097654;28;47529;-65
2022/08/17 02:45:47;;;;;;;;;12.00;12.00;;;;;23.41;61.69;100273.09;2097726;28;48056;-65
2022/08/17 02:46:47;;;;;;;;;12.00;12.00;;;;;23.40;61.34;100279.50;2097730;28;47772;-64
2022/08/17 02:47:49;;;;;;;;;13.00;13.00;;;;;23.42;61.61;100273.97;2097806;28;46544;-66
2022/08/17 02:48:49;;;;;;;;;16.40;15.80;;;;;23.42;61.55;100272.09;2097574;28;46864;-66
2022/08/17 02:49:49;;;;;;;;;13.50;12.25;;;;;23.43;61.18;100281.09;2097725;28;47848;-65
2022/08/17 02:50:50;;;;;;;;;14.25;14.25;;;;;23.43;61.45;100283.78;2096795;28;47541;-64
2022/08/17 02:51:50;;;;;;;;;14.75;13.00;;;;;23.41;61.61;100283.06;2093719;28;47516;-66
2022/08/17 02:52:52;;;;;;;;;12.25;12.25;;;;;23.44;61.51;100288.22;2093076;28;47506;-66
2022/08/17 02:53:53;;;;;;;;;14.60;13.80;;;;;23.45;61.30;100288.09;2097390;28;47448;-66
2022/08/17 02:54:53;;;;;;;;;12.50;12.50;;;;;23.45;61.43;100279.97;2104189;28;47618;-66
2022/08/17 02:55:53;;;;;;;;;15.00;15.00;;;;;23.47;61.15;100282.56;2103516;28;47379;-65
2022/08/17 02:56:54;;;;;;;;;7.00;7.00;;;;;23.48;61.25;100284.28;2088673;28;48072;-65
2022/08/17 02:57:55;;;;;;;;;12.50;12.50;;;;;23.48;61.26;100271.59;2082956;28;47530;-67
2022/08/17 02:58:55;;;;;;;;;12.40;12.40;;;;;23.49;61.57;100283.28;2089693;28;47733;-65
2022/08/17 02:59:56;;;;;;;;;12.25;12.25;;;;;23.51;61.34;100277.75;2096273;28;47350;-65
2022/08/17 03:00:56;;;;;;;;;13.75;13.25;;;;;23.51;61.31;100283.19;2096548;28;47372;-65
2022/08/17 03:01:56;;;;;;;;;16.00;13.75;;;;;23.53;61.13;100273.06;2097129;28;47443;-65
2022/08/17 03:02:57;;;;;;;;;14.25;14.25;;;;;23.55;60.92;100274.66;2099593;28;47823;-67
2022/08/17 03:03:57;;;;;;;;;14.25;13.00;;;;;23.56;61.20;100270.97;2101436;28;47613;-67
2022/08/17 03:04:58;;;;;;;;;13.00;12.00;;;;;23.58;61.02;100273.56;2091901;28;47898;-66
2022/08/17 03:05:58;;;;;;;;;18.50;16.00;;;;;23.59;60.94;100269.88;2094912;28;47628;-65
2022/08/17 03:06:59;;;;;;;;;18.50;17.75;;;;;23.59;61.11;100261.75;2088875;28;48127;-66
2022/08/17 03:08:00;;;;;;;;;13.50;13.50;;;;;23.60;61.25;100264.31;2089000;28;47778;-64
2022/08/17 03:09:00;;;;;;;;;12.80;12.80;;;;;23.62;60.92;100264.19;2083118;28;47715;-66
2022/08/17 03:10:01;;;;;;;;;11.50;11.50;;;;;23.61;60.99;100254.34;2080159;28;47785;-66
2022/08/17 03:11:01;;;;;;;;;16.75;16.75;;;;;23.62;61.09;100256.06;2088871;28;47616;-66
2022/08/17 03:12:07;;;;;;;;;17.00;16.25;;;;;23.62;61.15;100254.22;2088989;28;47459;-66
2022/08/17 03:13:07;;;;;;;;;16.60;14.00;;;;;23.61;61.21;100249.78;2089106;28;47965;-66
2022/08/17 03:14:08;;;;;;;;;16.75;16.75;;;;;23.59;61.13;100257.19;2088895;28;47299;-66
2022/08/17 03:15:16;;;;;;;;;19.25;16.50;;;;;23.57;61.19;100251.00;2089295;28;46084;-66
2022/08/17 03:16:17;;;;;;;;;19.40;16.80;;;;;23.56;61.10;100252.00;2087597;28;46949;-65
2022/08/17 03:17:17;;;;;;;;;16.50;15.50;;;;;23.57;60.77;100244.75;2082272;28;47747;-66
2022/08/17 03:18:20;;;;;;;;;18.50;16.50;;;;;23.58;61.13;100238.34;2089492;28;47980;-65
2022/08/17 03:19:20;;;;;;;;;17.00;17.00;;;;;23.58;61.22;100241.94;2097020;28;47567;-66
2022/08/17 03:20:21;;;;;;;;;17.75;17.75;;;;;23.60;61.08;100242.66;2093458;28;47334;-65
2022/08/17 03:21:22;;;;;;;;;14.80;14.80;;;;;23.60;61.02;100241.78;2088440;28;46524;-66
2022/08/17 03:22:22;;;;;;;;;16.50;15.00;;;;;23.61;61.17;100248.94;2088251;28;47294;-66
2022/08/17 03:23:24;;;;;;;;;17.25;16.50;;;;;23.61;60.98;100244.38;2097072;28;47196;-66
2022/08/17 03:24:24;;;;;;;;;17.20;17.20;;;;;23.61;61.06;100248.94;2097358;28;47513;-66
2022/08/17 03:25:31;;;;;;;;;16.25;15.75;;;;;23.64;60.61;100251.41;2097351;28;47974;-64
2022/08/17 03:26:32;;;;;;;;;17.80;17.00;;;;;23.66;60.60;100250.28;2097284;28;48000;-65
2022/08/17 03:27:32;;;;;;;;;17.25;16.25;;;;;23.67;60.66;100243.88;2097294;28;47300;-66
2022/08/17 03:28:33;;;;;;;;;16.00;15.75;;;;;23.70;60.65;100251.75;2097276;28;47948;-65
2022/08/17 03:29:33;;;;;;;;;15.00;15.00;;;;;23.73;60.33;100245.19;2097441;28;47505;-66
2022/08/17 03:30:33;;;;;;;;;17.00;17.00;;;;;23.75;60.46;100245.94;2089355;28;47510;-65
2022/08/17 03:31:34;;;;;;;;;19.25;17.00;;;;;23.78;60.73;100243.84;2088578;28;47655;-65
2022/08/17 03:32:46;;;;;;;;;18.00;18.00;;;;;23.80;60.39;100249.13;2097261;28;46096;-65
2022/08/17 03:33:47;;;;;;;;;16.40;16.40;;;;;23.83;60.62;100253.41;2090077;28;47721;-65
2022/08/17 03:34:47;;;;;;;;;14.00;14.00;;;;;23.85;60.35;100251.44;2088848;28;47539;-66
2022/08/17 03:35:48;;;;;;;;;15.75;15.75;;;;;23.88;60.15;100251.16;2089120;28;47388;-66
2022/08/17 03:36:48;;;;;;;;;18.50;18.25;;;;;23.90;59.98;100243.81;2088811;28;47757;-65
2022/08/17 03:37:49;;;;;;;;;16.25;16.25;;;;;23.91;60.40;100246.38;2089293;28;47364;-66
2022/08/17 03:38:49;;;;;;;;;16.50;15.50;;;;;23.94;60.14;100237.13;2097594;28;47254;-66
2022/08/17 03:39:49;;;;;;;;;19.50;17.00;;;;;23.94;60.26;100235.25;2096976;28;47672;-64
2022/08/17 03:40:51;;;;;;;;;15.75;13.75;;;;;23.95;60.07;100228.84;2090466;28;47353;-64
2022/08/17 03:41:52;;;;;;;;;18.40;18.40;;;;;23.98;60.00;100235.84;2095627;28;47905;-64
2022/08/17 03:42:53;;;;;;;;;16.25;16.25;;;;;23.98;60.01;100234.00;2097179;28;47329;-66
2022/08/17 03:43:53;;;;;;;;;11.40;9.20;;;;;23.99;60.21;100235.72;2097080;28;47293;-65
2022/08/17 03:44:56;;;;;;;;;14.00;14.00;;;;;24.01;60.21;100238.28;2096578;28;47497;-65
2022/08/17 03:56:41;;;;;;;;;14.00;13.40;;;;;23.70;61.00;100235.47;2074182;28;47442;-67
2022/08/17 03:57:41;;;;;;;;;15.80;15.00;;;;;23.68;60.77;100242.88;2083859;28;47079;-67
2022/08/17 03:58:42;;;;;;;;;16.25;16.25;;;;;23.66;60.18;100244.88;2097721;27;47529;-65
2022/08/17 03:59:42;;;;;;;;;17.25;17.00;;;;;23.64;60.67;100249.56;2097020;28;47523;-65
2022/08/17 04:00:44;;;;;;;;;14.25;13.75;;;;;23.61;60.48;100244.38;2097307;28;47591;-64
2022/08/17 04:01:51;;;;;;;;;18.20;18.20;;;;;23.60;60.87;100250.78;2097419;28;47434;-66
2022/08/17 04:02:52;;;;;;;;;17.60;17.60;;;;;23.59;60.97;100257.19;2089745;28;47023;-64
2022/08/17 04:03:52;;;;;;;;;16.25;16.25;;;;;23.56;60.82;100246.59;2091154;28;47634;-66
2022/08/17 04:04:53;;;;;;;;;19.00;19.00;;;;;23.56;60.69;100251.16;2097014;28;47087;-64
2022/08/17 04:05:53;;;;;;;;;18.50;18.50;;;;;23.56;60.99;100252.00;2095182;28;47412;-66
2022/08/17 04:06:54;;;;;;;;;17.00;16.00;;;;;23.57;61.05;100253.72;2089386;28;47777;-66
2022/08/17 04:07:55;;;;;;;;;18.50;18.00;;;;;23.57;61.05;100256.44;2096283;28;47267;-67
2022/08/17 04:08:55;;;;;;;;;21.60;18.80;;;;;23.56;60.73;100259.28;2090925;28;47324;-66
2022/08/17 04:09:56;;;;;;;;;22.00;21.50;;;;;23.55;60.77;100260.25;2097435;28;47819;-65
2022/08/17 04:10:58;;;;;;;;;21.00;18.80;;;;;23.55;60.94;100271.09;2089657;28;47810;-67
2022/08/17 04:11:59;;;;;;;;;21.00;20.00;;;;;23.53;60.73;100265.81;2096463;28;46617;-65
2022/08/17 04:13:00;;;;;;;;;19.75;19.75;;;;;23.54;61.08;100272.09;2096868;28;46994;-66
2022/08/17 04:14:01;;;;;;;;;18.50;16.00;;;;;23.54;60.86;100278.38;2097143;28;47287;-65
2022/08/17 04:15:01;;;;;;;;;21.00;21.00;;;;;23.56;61.00;100275.53;2096949;28;47196;-66
2022/08/17 04:16:02;;;;;;;;;19.25;19.00;;;;;23.56;60.89;100275.53;2094810;28;47374;-66
2022/08/17 04:17:03;;;;;;;;;18.75;18.75;;;;;23.58;61.04;100276.28;2092130;28;47796;-67
2022/08/17 04:18:06;;;;;;;;;18.40;17.60;;;;;23.59;61.31;100281.56;2096958;28;47674;-65
2022/08/17 04:19:06;;;;;;;;;19.20;18.60;;;;;23.60;60.90;100279.72;2088042;28;46792;-66
2022/08/17 04:20:07;;;;;;;;;24.25;22.25;;;;;23.61;61.00;100286.84;2079618;28;47201;-66
2022/08/17 04:21:08;;;;;;;;;19.60;19.40;;;;;23.62;60.88;100277.75;2088002;28;47622;-66
2022/08/17 04:22:08;;;;;;;;;22.25;18.50;;;;;23.61;60.73;100273.31;2096901;28;47009;-67
2022/08/17 04:23:17;;;;;;;;;19.50;19.25;;;;;23.62;60.66;100275.03;2094219;28;47617;-65
2022/08/17 04:24:17;;;;;;;;;16.60;16.60;;;;;23.63;60.67;100277.63;2095526;28;48374;-66
2022/08/17 04:25:18;;;;;;;;;22.25;22.00;;;;;23.64;60.67;100281.22;2096864;28;47222;-67
2022/08/17 04:26:19;;;;;;;;;22.40;20.80;;;;;23.65;60.80;100274.81;2096730;28;47454;-64
2022/08/17 04:27:19;;;;;;;;;22.00;20.75;;;;;23.63;60.64;100285.78;2097074;28;46610;-65
2022/08/17 04:28:20;;;;;;;;;21.25;19.25;;;;;23.64;60.74;100281.22;2093511;28;47856;-66
2022/08/17 04:29:20;;;;;;;;;21.75;21.75;;;;;23.63;60.79;100282.16;2088550;28;47459;-66
2022/08/17 04:30:21;;;;;;;;;21.50;21.50;;;;;23.64;61.08;100281.22;2090495;28;47952;-66
2022/08/17 04:31:21;;;;;;;;;20.25;19.75;;;;;23.63;61.01;100288.47;2097191;28;45568;-66
2022/08/17 04:32:22;;;;;;;;;20.75;19.75;;;;;23.62;60.93;100278.59;2097275;28;47458;-64
2022/08/17 04:33:25;;;;;;;;;8.75;7.50;;;;;23.63;60.86;100282.16;2093664;28;47378;-65
2022/08/17 04:34:25;;;;;;;;;18.40;18.00;;;;;23.61;60.95;100290.44;2088510;28;47867;-65
2022/08/17 04:35:30;;;;;;;;;19.75;17.25;;;;;23.60;61.11;100287.84;2087074;28;47910;-65
2022/08/17 04:36:30;;;;;;;;;20.60;20.00;;;;;23.57;61.21;100288.94;2087386;28;48297;-64
2022/08/17 04:37:31;;;;;;;;;19.50;18.75;;;;;23.56;61.30;100280.94;2088453;28;47263;-65
2022/08/17 04:38:35;;;;;;;;;20.75;20.75;;;;;23.55;61.23;100287.34;2087736;28;47450;-66
2022/08/17 04:39:35;;;;;;;;;21.20;19.00;;;;;23.54;60.94;100280.22;2091978;28;45325;-65
2022/08/17 04:42:15;;;;;;;;;16.00;16.00;;;;;23.50;61.26;100274.16;2062972;28;47625;-66
2022/08/17 04:43:19;;;;;;;;;22.00;18.00;;;;;23.50;61.25;100276.88;2070286;28;47590;-66
2022/08/17 04:44:19;;;;;;;;;17.40;17.40;;;;;23.51;61.15;100277.75;2070882;28;47476;-66
2022/08/17 04:45:20;;;;;;;;;16.50;14.75;;;;;23.52;61.42;100280.34;2070015;28;46475;-64
2022/08/17 04:46:31;;;;;;;;;15.25;15.25;;;;;23.54;61.07;100272.94;2070970;28;47400;-67
2022/08/17 04:47:32;;;;;;;;;23.80;19.80;;;;;23.56;61.03;100273.66;2070924;28;48164;-65
2022/08/17 04:48:44;;;;;;;;;20.50;20.25;;;;;23.58;60.82;100279.84;2071087;28;47421;-63
2022/08/17 04:49:45;;;;;;;;;20.00;19.60;;;;;23.60;60.66;100271.59;2071020;28;48161;-65
2022/08/17 04:50:48;;;;;;;;;19.50;19.50;;;;;23.61;60.76;100268.75;2071132;28;47495;-65
2022/08/17 04:51:49;;;;;;;;;18.40;18.40;;;;;23.64;60.88;100278.50;2070732;28;47808;-65
2022/08/17 04:52:49;;;;;;;;;17.50;17.50;;;;;23.64;60.75;100278.50;2070865;28;47492;-65
2022/08/17 04:53:52;;;;;;;;;17.25;17.25;;;;;23.65;60.64;100272.94;2070777;28;47822;-66
2022/08/17 04:54:53;;;;;;;;;17.00;17.00;;;;;23.67;60.65;100279.09;2070844;28;47379;-65